sensor_id;sensor_type;location;lat;lon;timestamp;P1;durP1;ratioP1;P2;durP2;ratioP2
57113;SDS011;42994;51.606;9.988;2023-04-24T00:00:59;4.32;;;0.82;;
57113;SDS011;42994;51.606;9.988;2023-04-24T00:03:26;2.17;;;0.80;;
57113;SDS011;42994;51.606;9.988;2023-04-24T00:05:54;1.35;;;0.90;;
57113;SDS011;42994;51.606;9.988;2023-04-24T00:08:22;1.90;;;0.95;;
57113;SDS011;42994;51.606;9.988;2023-04-24T00:10:49;1.70;;;0.80;;
57113;SDS011;42994;51.606;9.988;2023-04-24T00:13:17;0.70;;;0.70;;
57113;SDS011;42994;51.606;9.988;2023-04-24T00:15:44;1.63;;;0.70;;
57113;SDS011;42994;51.606;9.988;2023-04-24T00:18:11;2.05;;;0.95;;
57113;SDS011;42994;51.606;9.988;2023-04-24T00:20:37;1.00;;;0.65;;
57113;SDS011;42994;51.606;9.988;2023-04-24T00:23:04;1.27;;;0.80;;
57113;SDS011;42994;51.606;9.988;2023-04-24T00:25:32;3.17;;;0.70;;
57113;SDS011;42994;51.606;9.988;2023-04-24T00:27:59;1.52;;;1.00;;
57113;SDS011;42994;51.606;9.988;2023-04-24T00:30:26;1.25;;;0.82;;
57113;SDS011;42994;51.606;9.988;2023-04-24T00:32:52;1.77;;;0.70;;
57113;SDS011;42994;51.606;9.988;2023-04-24T00:35:19;0.98;;;0.80;;
57113;SDS011;42994;51.606;9.988;2023-04-24T00:37:46;3.70;;;1.08;;
57113;SDS011;42994;51.606;9.988;2023-04-24T00:40:12;1.13;;;0.80;;
57113;SDS011;42994;51.606;9.988;2023-04-24T00:42:40;2.40;;;0.80;;
57113;SDS011;42994;51.606;9.988;2023-04-24T00:45:08;7.43;;;0.90;;
57113;SDS011;42994;51.606;9.988;2023-04-24T00:47:35;0.60;;;0.60;;
57113;SDS011;42994;51.606;9.988;2023-04-24T00:50:02;1.38;;;0.70;;
57113;SDS011;42994;51.606;9.988;2023-04-24T00:52:29;0.57;;;0.57;;
57113;SDS011;42994;51.606;9.988;2023-04-24T00:54:57;0.98;;;0.50;;
57113;SDS011;42994;51.606;9.988;2023-04-24T00:57:23;1.75;;;0.60;;
57113;SDS011;42994;51.606;9.988;2023-04-24T00:59:52;3.40;;;0.57;;
57113;SDS011;42994;51.606;9.988;2023-04-24T01:02:19;0.60;;;0.60;;
57113;SDS011;42994;51.606;9.988;2023-04-24T01:04:50;1.27;;;0.68;;
57113;SDS011;42994;51.606;9.988;2023-04-24T01:07:17;0.63;;;0.63;;
57113;SDS011;42994;51.606;9.988;2023-04-24T01:09:46;1.15;;;0.75;;
57113;SDS011;42994;51.606;9.988;2023-04-24T01:12:17;1.90;;;0.98;;
57113;SDS011;42994;51.606;9.988;2023-04-24T01:14:44;1.90;;;0.80;;
57113;SDS011;42994;51.606;9.988;2023-04-24T01:17:12;0.55;;;0.50;;
57113;SDS011;42994;51.606;9.988;2023-04-24T01:19:40;1.33;;;0.60;;
57113;SDS011;42994;51.606;9.988;2023-04-24T01:22:11;2.58;;;0.88;;
57113;SDS011;42994;51.606;9.988;2023-04-24T01:24:39;1.50;;;0.50;;
57113;SDS011;42994;51.606;9.988;2023-04-24T01:27:07;1.77;;;0.40;;
57113;SDS011;42994;51.606;9.988;2023-04-24T01:29:34;0.65;;;0.43;;
57113;SDS011;42994;51.606;9.988;2023-04-24T01:32:02;0.63;;;0.50;;
57113;SDS011;42994;51.606;9.988;2023-04-24T01:34:29;2.63;;;0.50;;
57113;SDS011;42994;51.606;9.988;2023-04-24T01:36:56;1.13;;;0.65;;
57113;SDS011;42994;51.606;9.988;2023-04-24T01:39:24;1.20;;;0.68;;
57113;SDS011;42994;51.606;9.988;2023-04-24T01:41:53;1.50;;;0.60;;
57113;SDS011;42994;51.606;9.988;2023-04-24T01:44:20;3.75;;;0.75;;
57113;SDS011;42994;51.606;9.988;2023-04-24T01:46:47;0.65;;;0.65;;
57113;SDS011;42994;51.606;9.988;2023-04-24T01:49:14;0.57;;;0.50;;
57113;SDS011;42994;51.606;9.988;2023-04-24T01:51:41;0.77;;;0.60;;
57113;SDS011;42994;51.606;9.988;2023-04-24T01:54:07;0.57;;;0.50;;
57113;SDS011;42994;51.606;9.988;2023-04-24T01:56:36;1.02;;;0.60;;
57113;SDS011;42994;51.606;9.988;2023-04-24T01:59:06;2.47;;;0.75;;
57113;SDS011;42994;51.606;9.988;2023-04-24T02:01:35;0.75;;;0.75;;
57113;SDS011;42994;51.606;9.988;2023-04-24T02:04:02;2.33;;;0.70;;
57113;SDS011;42994;51.606;9.988;2023-04-24T02:06:30;1.58;;;0.65;;
57113;SDS011;42994;51.606;9.988;2023-04-24T02:08:59;2.03;;;0.68;;
57113;SDS011;42994;51.606;9.988;2023-04-24T02:11:27;2.08;;;0.63;;
57113;SDS011;42994;51.606;9.988;2023-04-24T02:13:55;1.33;;;0.70;;
57113;SDS011;42994;51.606;9.988;2023-04-24T02:16:21;0.73;;;0.57;;
57113;SDS011;42994;51.606;9.988;2023-04-24T02:18:49;1.90;;;0.60;;
57113;SDS011;42994;51.606;9.988;2023-04-24T02:21:16;1.05;;;0.68;;
57113;SDS011;42994;51.606;9.988;2023-04-24T02:23:43;2.80;;;0.80;;
57113;SDS011;42994;51.606;9.988;2023-04-24T02:26:11;1.90;;;0.82;;
57113;SDS011;42994;51.606;9.988;2023-04-24T02:28:38;1.10;;;0.70;;
57113;SDS011;42994;51.606;9.988;2023-04-24T02:31:06;0.43;;;0.43;;
57113;SDS011;42994;51.606;9.988;2023-04-24T02:33:33;1.35;;;0.75;;
57113;SDS011;42994;51.606;9.988;2023-04-24T02:36:00;0.98;;;0.70;;
57113;SDS011;42994;51.606;9.988;2023-04-24T02:38:27;1.13;;;0.40;;
57113;SDS011;42994;51.606;9.988;2023-04-24T02:40:54;0.43;;;0.40;;
57113;SDS011;42994;51.606;9.988;2023-04-24T02:43:21;3.45;;;0.85;;
57113;SDS011;42994;51.606;9.988;2023-04-24T02:45:48;0.47;;;0.40;;
57113;SDS011;42994;51.606;9.988;2023-04-24T02:48:16;1.30;;;0.50;;
57113;SDS011;42994;51.606;9.988;2023-04-24T02:50:43;0.70;;;0.70;;
57113;SDS011;42994;51.606;9.988;2023-04-24T02:53:10;1.58;;;0.60;;
57113;SDS011;42994;51.606;9.988;2023-04-24T02:55:37;3.13;;;0.63;;
57113;SDS011;42994;51.606;9.988;2023-04-24T02:58:03;0.63;;;0.60;;
57113;SDS011;42994;51.606;9.988;2023-04-24T03:00:31;1.25;;;0.50;;
57113;SDS011;42994;51.606;9.988;2023-04-24T03:02:57;2.05;;;0.57;;
57113;SDS011;42994;51.606;9.988;2023-04-24T03:05:25;0.70;;;0.70;;
57113;SDS011;42994;51.606;9.988;2023-04-24T03:07:52;0.32;;;0.30;;
57113;SDS011;42994;51.606;9.988;2023-04-24T03:10:20;2.63;;;0.47;;
57113;SDS011;42994;51.606;9.988;2023-04-24T03:12:47;0.55;;;0.55;;
57113;SDS011;42994;51.606;9.988;2023-04-24T03:15:14;0.98;;;0.60;;
57113;SDS011;42994;51.606;9.988;2023-04-24T03:17:41;2.30;;;0.90;;
57113;SDS011;42994;51.606;9.988;2023-04-24T03:20:08;1.00;;;0.80;;
57113;SDS011;42994;51.606;9.988;2023-04-24T03:22:37;2.47;;;0.52;;
57113;SDS011;42994;51.606;9.988;2023-04-24T03:25:06;0.60;;;0.60;;
57113;SDS011;42994;51.606;9.988;2023-04-24T03:27:34;1.35;;;0.70;;
57113;SDS011;42994;51.606;9.988;2023-04-24T03:30:06;1.15;;;0.90;;
57113;SDS011;42994;51.606;9.988;2023-04-24T03:32:51;2.47;;;0.88;;
57113;SDS011;42994;51.606;9.988;2023-04-24T03:35:22;1.50;;;0.80;;
57113;SDS011;42994;51.606;9.988;2023-04-24T03:37:52;0.75;;;0.73;;
57113;SDS011;42994;51.606;9.988;2023-04-24T03:40:54;1.27;;;0.80;;
57113;SDS011;42994;51.606;9.988;2023-04-24T03:43:59;1.08;;;0.98;;
57113;SDS011;42994;51.606;9.988;2023-04-24T03:46:26;1.00;;;0.90;;
57113;SDS011;42994;51.606;9.988;2023-04-24T03:48:56;2.17;;;0.80;;
57113;SDS011;42994;51.606;9.988;2023-04-24T03:51:28;2.45;;;1.13;;
57113;SDS011;42994;51.606;9.988;2023-04-24T03:54:03;1.63;;;0.90;;
57113;SDS011;42994;51.606;9.988;2023-04-24T03:56:33;1.15;;;0.95;;
57113;SDS011;42994;51.606;9.988;2023-04-24T03:59:00;1.85;;;0.82;;
57113;SDS011;42994;51.606;9.988;2023-04-24T04:01:27;3.00;;;1.08;;
57113;SDS011;42994;51.606;9.988;2023-04-24T04:04:01;2.42;;;1.30;;
57113;SDS011;42994;51.606;9.988;2023-04-24T04:06:28;3.30;;;1.00;;
57113;SDS011;42994;51.606;9.988;2023-04-24T04:08:58;2.75;;;1.20;;
57113;SDS011;42994;51.606;9.988;2023-04-24T04:11:26;2.58;;;1.30;;
57113;SDS011;42994;51.606;9.988;2023-04-24T04:13:53;1.98;;;0.98;;
57113;SDS011;42994;51.606;9.988;2023-04-24T04:16:20;2.00;;;1.30;;
57113;SDS011;42994;51.606;9.988;2023-04-24T04:18:50;3.13;;;1.35;;
57113;SDS011;42994;51.606;9.988;2023-04-24T04:21:17;1.40;;;1.10;;
57113;SDS011;42994;51.606;9.988;2023-04-24T04:23:44;2.22;;;1.25;;
57113;SDS011;42994;51.606;9.988;2023-04-24T04:26:18;3.80;;;1.38;;
57113;SDS011;42994;51.606;9.988;2023-04-24T04:29:05;1.60;;;0.98;;
57113;SDS011;42994;51.606;9.988;2023-04-24T04:31:33;1.52;;;1.10;;
57113;SDS011;42994;51.606;9.988;2023-04-24T04:36:33;2.33;;;1.10;;
57113;SDS011;42994;51.606;9.988;2023-04-24T04:39:12;3.75;;;1.40;;
57113;SDS011;42994;51.606;9.988;2023-04-24T04:42:09;2.20;;;1.08;;
57113;SDS011;42994;51.606;9.988;2023-04-24T04:44:41;2.95;;;1.15;;
57113;SDS011;42994;51.606;9.988;2023-04-24T04:47:13;1.50;;;1.17;;
57113;SDS011;42994;51.606;9.988;2023-04-24T04:49:40;2.03;;;1.23;;
57113;SDS011;42994;51.606;9.988;2023-04-24T04:52:15;1.77;;;1.48;;
57113;SDS011;42994;51.606;9.988;2023-04-24T04:54:43;3.08;;;1.25;;
57113;SDS011;42994;51.606;9.988;2023-04-24T04:57:10;1.40;;;1.30;;
57113;SDS011;42994;51.606;9.988;2023-04-24T04:59:37;3.72;;;1.20;;
57113;SDS011;42994;51.606;9.988;2023-04-24T05:02:10;1.55;;;1.20;;
57113;SDS011;42994;51.606;9.988;2023-04-24T05:04:37;3.15;;;1.02;;
57113;SDS011;42994;51.606;9.988;2023-04-24T05:07:04;3.03;;;1.10;;
57113;SDS011;42994;51.606;9.988;2023-04-24T05:09:34;3.40;;;1.10;;
57113;SDS011;42994;51.606;9.988;2023-04-24T05:12:03;1.17;;;1.00;;
57113;SDS011;42994;51.606;9.988;2023-04-24T05:14:49;2.38;;;0.88;;
57113;SDS011;42994;51.606;9.988;2023-04-24T05:17:37;3.78;;;0.90;;
57113;SDS011;42994;51.606;9.988;2023-04-24T05:20:08;2.05;;;0.82;;
57113;SDS011;42994;51.606;9.988;2023-04-24T05:22:38;1.10;;;1.00;;
57113;SDS011;42994;51.606;9.988;2023-04-24T05:25:09;0.80;;;0.80;;
57113;SDS011;42994;51.606;9.988;2023-04-24T05:27:55;1.95;;;0.70;;
57113;SDS011;42994;51.606;9.988;2023-04-24T05:30:36;1.95;;;0.82;;
57113;SDS011;42994;51.606;9.988;2023-04-24T05:33:26;2.13;;;0.85;;
57113;SDS011;42994;51.606;9.988;2023-04-24T05:35:57;2.90;;;0.95;;
57113;SDS011;42994;51.606;9.988;2023-04-24T05:38:40;1.63;;;1.00;;
57113;SDS011;42994;51.606;9.988;2023-04-24T05:41:27;1.35;;;0.63;;
57113;SDS011;42994;51.606;9.988;2023-04-24T05:44:15;0.70;;;0.70;;
57113;SDS011;42994;51.606;9.988;2023-04-24T05:46:53;1.17;;;0.90;;
57113;SDS011;42994;51.606;9.988;2023-04-24T05:49:37;2.67;;;1.00;;
57113;SDS011;42994;51.606;9.988;2023-04-24T05:52:08;0.93;;;0.85;;
57113;SDS011;42994;51.606;9.988;2023-04-24T05:54:39;2.55;;;0.90;;
57113;SDS011;42994;51.606;9.988;2023-04-24T05:57:19;1.45;;;0.90;;
57113;SDS011;42994;51.606;9.988;2023-04-24T06:03:20;1.90;;;0.88;;
57113;SDS011;42994;51.606;9.988;2023-04-24T06:06:06;1.63;;;0.90;;
57113;SDS011;42994;51.606;9.988;2023-04-24T06:08:36;1.40;;;0.85;;
57113;SDS011;42994;51.606;9.988;2023-04-24T06:11:03;0.98;;;0.82;;
57113;SDS011;42994;51.606;9.988;2023-04-24T06:13:31;0.85;;;0.85;;
57113;SDS011;42994;51.606;9.988;2023-04-24T06:16:20;1.65;;;0.90;;
57113;SDS011;42994;51.606;9.988;2023-04-24T06:18:57;1.15;;;0.90;;
57113;SDS011;42994;51.606;9.988;2023-04-24T06:23:54;0.88;;;0.80;;
57113;SDS011;42994;51.606;9.988;2023-04-24T06:26:21;2.13;;;0.95;;
57113;SDS011;42994;51.606;9.988;2023-04-24T06:28:50;1.35;;;0.75;;
57113;SDS011;42994;51.606;9.988;2023-04-24T06:31:18;1.30;;;0.80;;
57113;SDS011;42994;51.606;9.988;2023-04-24T06:33:44;1.52;;;0.85;;
57113;SDS011;42994;51.606;9.988;2023-04-24T06:36:11;1.60;;;0.85;;
57113;SDS011;42994;51.606;9.988;2023-04-24T06:38:39;1.73;;;1.00;;
57113;SDS011;42994;51.606;9.988;2023-04-24T06:41:06;3.55;;;1.13;;
57113;SDS011;42994;51.606;9.988;2023-04-24T06:43:32;2.17;;;1.20;;
57113;SDS011;42994;51.606;9.988;2023-04-24T06:45:59;0.88;;;0.88;;
57113;SDS011;42994;51.606;9.988;2023-04-24T06:48:28;3.42;;;0.88;;
57113;SDS011;42994;51.606;9.988;2023-04-24T06:50:55;3.13;;;1.30;;
57113;SDS011;42994;51.606;9.988;2023-04-24T06:53:21;1.40;;;1.30;;
57113;SDS011;42994;51.606;9.988;2023-04-24T06:55:49;1.27;;;1.05;;
57113;SDS011;42994;51.606;9.988;2023-04-24T06:58:16;3.22;;;1.30;;
57113;SDS011;42994;51.606;9.988;2023-04-24T07:00:42;1.33;;;1.23;;
57113;SDS011;42994;51.606;9.988;2023-04-24T07:03:09;1.63;;;1.40;;
57113;SDS011;42994;51.606;9.988;2023-04-24T07:05:36;1.40;;;1.30;;
57113;SDS011;42994;51.606;9.988;2023-04-24T07:08:03;2.13;;;1.50;;
57113;SDS011;42994;51.606;9.988;2023-04-24T07:10:31;2.72;;;2.00;;
57113;SDS011;42994;51.606;9.988;2023-04-24T07:13:01;2.95;;;1.73;;
57113;SDS011;42994;51.606;9.988;2023-04-24T07:15:28;2.85;;;1.95;;
57113;SDS011;42994;51.606;9.988;2023-04-24T07:17:55;2.45;;;2.00;;
57113;SDS011;42994;51.606;9.988;2023-04-24T07:20:22;3.10;;;2.00;;
57113;SDS011;42994;51.606;9.988;2023-04-24T07:22:48;2.67;;;1.70;;
57113;SDS011;42994;51.606;9.988;2023-04-24T07:25:16;2.42;;;2.22;;
57113;SDS011;42994;51.606;9.988;2023-04-24T07:27:43;2.53;;;1.88;;
57113;SDS011;42994;51.606;9.988;2023-04-24T07:30:12;3.17;;;2.25;;
57113;SDS011;42994;51.606;9.988;2023-04-24T07:32:39;2.15;;;1.88;;
57113;SDS011;42994;51.606;9.988;2023-04-24T07:35:05;2.65;;;2.45;;
57113;SDS011;42994;51.606;9.988;2023-04-24T07:37:34;2.90;;;2.60;;
57113;SDS011;42994;51.606;9.988;2023-04-24T07:40:01;2.47;;;2.28;;
57113;SDS011;42994;51.606;9.988;2023-04-24T07:42:28;3.50;;;2.55;;
57113;SDS011;42994;51.606;9.988;2023-04-24T07:44:56;3.22;;;2.47;;
57113;SDS011;42994;51.606;9.988;2023-04-24T07:47:24;2.75;;;2.53;;
57113;SDS011;42994;51.606;9.988;2023-04-24T07:49:50;3.58;;;2.35;;
57113;SDS011;42994;51.606;9.988;2023-04-24T07:52:17;4.22;;;2.35;;
57113;SDS011;42994;51.606;9.988;2023-04-24T07:54:43;5.47;;;2.83;;
57113;SDS011;42994;51.606;9.988;2023-04-24T07:57:10;3.13;;;2.83;;
57113;SDS011;42994;51.606;9.988;2023-04-24T07:59:37;3.13;;;2.83;;
57113;SDS011;42994;51.606;9.988;2023-04-24T08:02:09;4.35;;;2.95;;
57113;SDS011;42994;51.606;9.988;2023-04-24T08:04:39;4.13;;;2.80;;
57113;SDS011;42994;51.606;9.988;2023-04-24T08:07:09;3.03;;;2.60;;
57113;SDS011;42994;51.606;9.988;2023-04-24T08:09:38;3.17;;;2.58;;
57113;SDS011;42994;51.606;9.988;2023-04-24T08:12:06;3.42;;;3.03;;
57113;SDS011;42994;51.606;9.988;2023-04-24T08:14:37;3.40;;;3.08;;
57113;SDS011;42994;51.606;9.988;2023-04-24T08:17:03;2.70;;;2.30;;
57113;SDS011;42994;51.606;9.988;2023-04-24T08:19:35;3.08;;;2.78;;
57113;SDS011;42994;51.606;9.988;2023-04-24T08:22:06;3.67;;;2.17;;
57113;SDS011;42994;51.606;9.988;2023-04-24T08:24:35;3.10;;;2.80;;
57113;SDS011;42994;51.606;9.988;2023-04-24T08:27:02;4.95;;;2.70;;
57113;SDS011;42994;51.606;9.988;2023-04-24T08:29:32;3.88;;;2.50;;
57113;SDS011;42994;51.606;9.988;2023-04-24T08:32:01;3.78;;;2.10;;
57113;SDS011;42994;51.606;9.988;2023-04-24T08:34:30;2.60;;;2.40;;
57113;SDS011;42994;51.606;9.988;2023-04-24T08:36:59;3.53;;;2.20;;
57113;SDS011;42994;51.606;9.988;2023-04-24T08:39:27;2.33;;;2.10;;
57113;SDS011;42994;51.606;9.988;2023-04-24T08:41:57;2.83;;;2.33;;
57113;SDS011;42994;51.606;9.988;2023-04-24T08:44:32;3.30;;;2.50;;
57113;SDS011;42994;51.606;9.988;2023-04-24T08:47:00;13.93;;;2.67;;
57113;SDS011;42994;51.606;9.988;2023-04-24T08:49:28;2.38;;;2.17;;
57113;SDS011;42994;51.606;9.988;2023-04-24T08:51:55;3.08;;;2.40;;
57113;SDS011;42994;51.606;9.988;2023-04-24T08:54:22;2.95;;;2.13;;
57113;SDS011;42994;51.606;9.988;2023-04-24T08:56:53;4.53;;;2.40;;
57113;SDS011;42994;51.606;9.988;2023-04-24T08:59:27;2.40;;;1.67;;
57113;SDS011;42994;51.606;9.988;2023-04-24T09:01:54;2.53;;;2.03;;
57113;SDS011;42994;51.606;9.988;2023-04-24T09:04:22;3.92;;;2.58;;
57113;SDS011;42994;51.606;9.988;2023-04-24T09:06:49;2.80;;;2.35;;
57113;SDS011;42994;51.606;9.988;2023-04-24T09:09:17;2.50;;;2.30;;
57113;SDS011;42994;51.606;9.988;2023-04-24T09:11:44;3.45;;;2.08;;
57113;SDS011;42994;51.606;9.988;2023-04-24T09:14:16;3.00;;;2.67;;
57113;SDS011;42994;51.606;9.988;2023-04-24T09:16:43;2.67;;;2.40;;
57113;SDS011;42994;51.606;9.988;2023-04-24T09:19:11;2.88;;;2.20;;
57113;SDS011;42994;51.606;9.988;2023-04-24T09:21:37;2.78;;;2.08;;
57113;SDS011;42994;51.606;9.988;2023-04-24T09:24:06;3.13;;;2.00;;
57113;SDS011;42994;51.606;9.988;2023-04-24T09:26:42;2.30;;;1.60;;
57113;SDS011;42994;51.606;9.988;2023-04-24T09:29:14;2.10;;;1.92;;
57113;SDS011;42994;51.606;9.988;2023-04-24T09:31:45;2.83;;;1.80;;
57113;SDS011;42994;51.606;9.988;2023-04-24T09:34:12;3.85;;;1.77;;
57113;SDS011;42994;51.606;9.988;2023-04-24T09:36:47;2.00;;;1.63;;
57113;SDS011;42994;51.606;9.988;2023-04-24T09:39:16;2.13;;;1.63;;
57113;SDS011;42994;51.606;9.988;2023-04-24T09:41:55;2.90;;;2.13;;
57113;SDS011;42994;51.606;9.988;2023-04-24T09:44:36;2.90;;;2.30;;
57113;SDS011;42994;51.606;9.988;2023-04-24T09:47:08;3.10;;;2.25;;
57113;SDS011;42994;51.606;9.988;2023-04-24T09:49:41;2.47;;;2.25;;
57113;SDS011;42994;51.606;9.988;2023-04-24T09:52:14;2.72;;;2.20;;
57113;SDS011;42994;51.606;9.988;2023-04-24T09:54:45;3.15;;;2.22;;
57113;SDS011;42994;51.606;9.988;2023-04-24T09:57:21;3.40;;;1.95;;
57113;SDS011;42994;51.606;9.988;2023-04-24T09:59:53;3.15;;;1.77;;
57113;SDS011;42994;51.606;9.988;2023-04-24T10:02:24;2.65;;;2.28;;
57113;SDS011;42994;51.606;9.988;2023-04-24T10:04:54;3.08;;;2.80;;
57113;SDS011;42994;51.606;9.988;2023-04-24T10:07:25;3.03;;;2.72;;
57113;SDS011;42994;51.606;9.988;2023-04-24T10:09:55;2.42;;;2.20;;
57113;SDS011;42994;51.606;9.988;2023-04-24T10:12:26;3.10;;;2.40;;
57113;SDS011;42994;51.606;9.988;2023-04-24T10:14:56;3.88;;;2.60;;
57113;SDS011;42994;51.606;9.988;2023-04-24T10:17:33;5.30;;;3.40;;
57113;SDS011;42994;51.606;9.988;2023-04-24T10:20:03;2.92;;;2.47;;
57113;SDS011;42994;51.606;9.988;2023-04-24T10:22:34;4.32;;;2.67;;
57113;SDS011;42994;51.606;9.988;2023-04-24T10:25:03;2.60;;;2.40;;
57113;SDS011;42994;51.606;9.988;2023-04-24T10:27:35;3.30;;;2.53;;
57113;SDS011;42994;51.606;9.988;2023-04-24T10:30:04;3.25;;;2.95;;
57113;SDS011;42994;51.606;9.988;2023-04-24T10:32:34;3.00;;;2.63;;
57113;SDS011;42994;51.606;9.988;2023-04-24T10:35:01;2.83;;;2.40;;
57113;SDS011;42994;51.606;9.988;2023-04-24T10:37:28;2.30;;;2.10;;
57113;SDS011;42994;51.606;9.988;2023-04-24T10:40:01;2.45;;;1.75;;
57113;SDS011;42994;51.606;9.988;2023-04-24T10:42:28;2.10;;;1.90;;
57113;SDS011;42994;51.606;9.988;2023-04-24T10:45:04;2.17;;;1.98;;
57113;SDS011;42994;51.606;9.988;2023-04-24T10:47:50;6.50;;;2.63;;
57113;SDS011;42994;51.606;9.988;2023-04-24T10:50:20;1.90;;;1.80;;
57113;SDS011;42994;51.606;9.988;2023-04-24T10:53:05;3.53;;;2.33;;
57113;SDS011;42994;51.606;9.988;2023-04-24T10:55:40;3.67;;;2.47;;
57113;SDS011;42994;51.606;9.988;2023-04-24T10:58:11;3.53;;;2.65;;
57113;SDS011;42994;51.606;9.988;2023-04-24T11:00:47;2.47;;;2.25;;
57113;SDS011;42994;51.606;9.988;2023-04-24T11:03:25;4.13;;;2.22;;
57113;SDS011;42994;51.606;9.988;2023-04-24T11:05:55;2.03;;;1.80;;
57113;SDS011;42994;51.606;9.988;2023-04-24T11:08:26;2.95;;;1.63;;
57113;SDS011;42994;51.606;9.988;2023-04-24T11:10:56;2.35;;;1.65;;
57113;SDS011;42994;51.606;9.988;2023-04-24T11:13:25;1.45;;;1.35;;
57113;SDS011;42994;51.606;9.988;2023-04-24T11:16:20;1.87;;;1.57;;
57113;SDS011;42994;51.606;9.988;2023-04-24T11:18:51;1.75;;;1.30;;
57113;SDS011;42994;51.606;9.988;2023-04-24T11:21:28;1.50;;;1.40;;
57113;SDS011;42994;51.606;9.988;2023-04-24T11:27:09;1.02;;;0.98;;
57113;SDS011;42994;51.606;9.988;2023-04-24T11:29:44;1.20;;;1.10;;
57113;SDS011;42994;51.606;9.988;2023-04-24T11:32:19;2.58;;;1.38;;
57113;SDS011;42994;51.606;9.988;2023-04-24T11:34:54;2.78;;;1.35;;
57113;SDS011;42994;51.606;9.988;2023-04-24T12:31:44;0.28;;;0.28;;
57113;SDS011;42994;51.606;9.988;2023-04-24T12:41:13;0.85;;;0.20;;
57113;SDS011;42994;51.606;9.988;2023-04-24T12:45:15;0.20;;;0.20;;
57113;SDS011;42994;51.606;9.988;2023-04-24T12:47:30;0.10;;;0.10;;
57113;SDS011;42994;51.606;9.988;2023-04-24T12:51:15;0.10;;;0.10;;
57113;SDS011;42994;51.606;9.988;2023-04-24T12:59:48;0.00;;;0.00;;
57113;SDS011;42994;51.606;9.988;2023-04-24T13:06:43;0.40;;;0.20;;
57113;SDS011;42994;51.606;9.988;2023-04-24T13:09:45;0.20;;;0.20;;
57113;SDS011;42994;51.606;9.988;2023-04-24T13:12:26;0.60;;;0.22;;
57113;SDS011;42994;51.606;9.988;2023-04-24T13:19:17;0.28;;;0.28;;
57113;SDS011;42994;51.606;9.988;2023-04-24T13:23:04;0.75;;;0.30;;
57113;SDS011;42994;51.606;9.988;2023-04-24T13:29:14;0.52;;;0.52;;
57113;SDS011;42994;51.606;9.988;2023-04-24T13:31:58;0.47;;;0.47;;
57113;SDS011;42994;51.606;9.988;2023-04-24T13:34:27;0.50;;;0.43;;
57113;SDS011;42994;51.606;9.988;2023-04-24T13:37:08;0.30;;;0.30;;
57113;SDS011;42994;51.606;9.988;2023-04-24T13:43:14;0.17;;;0.17;;
57113;SDS011;42994;51.606;9.988;2023-04-24T13:45:46;0.50;;;0.40;;
57113;SDS011;42994;51.606;9.988;2023-04-24T13:51:37;0.55;;;0.40;;
57113;SDS011;42994;51.606;9.988;2023-04-24T13:54:07;0.52;;;0.52;;
57113;SDS011;42994;51.606;9.988;2023-04-24T13:56:39;0.90;;;0.50;;
57113;SDS011;42994;51.606;9.988;2023-04-24T13:59:11;0.55;;;0.55;;
57113;SDS011;42994;51.606;9.988;2023-04-24T14:01:41;3.70;;;0.60;;
57113;SDS011;42994;51.606;9.988;2023-04-24T14:04:07;0.47;;;0.47;;
57113;SDS011;42994;51.606;9.988;2023-04-24T14:13:59;0.65;;;0.65;;
57113;SDS011;42994;51.606;9.988;2023-04-24T14:20:33;0.60;;;0.60;;
57113;SDS011;42994;51.606;9.988;2023-04-24T14:23:13;0.70;;;0.70;;
57113;SDS011;42994;51.606;9.988;2023-04-24T14:25:49;1.13;;;1.02;;
57113;SDS011;42994;51.606;9.988;2023-04-24T14:28:39;0.90;;;0.90;;
57113;SDS011;42994;51.606;9.988;2023-04-24T14:34:41;0.88;;;0.88;;
57113;SDS011;42994;51.606;9.988;2023-04-24T14:44:24;2.00;;;1.00;;
57113;SDS011;42994;51.606;9.988;2023-04-24T14:47:05;0.88;;;0.82;;
57113;SDS011;42994;51.606;9.988;2023-04-24T14:49:31;0.90;;;0.90;;
57113;SDS011;42994;51.606;9.988;2023-04-24T14:52:04;1.90;;;1.80;;
57113;SDS011;42994;51.606;9.988;2023-04-24T15:37:04;6.78;;;4.82;;
57113;SDS011;42994;51.606;9.988;2023-04-24T15:39:32;8.43;;;5.32;;
57113;SDS011;42994;51.606;9.988;2023-04-24T15:41:59;6.53;;;4.53;;
57113;SDS011;42994;51.606;9.988;2023-04-24T15:44:26;9.05;;;5.00;;
57113;SDS011;42994;51.606;9.988;2023-04-24T15:53:49;11.32;;;5.57;;
57113;SDS011;42994;51.606;9.988;2023-04-24T15:56:17;8.18;;;5.60;;
57113;SDS011;42994;51.606;9.988;2023-04-24T15:58:44;9.75;;;5.40;;
57113;SDS011;42994;51.606;9.988;2023-04-24T16:01:10;8.77;;;5.65;;
57113;SDS011;42994;51.606;9.988;2023-04-24T16:03:37;13.05;;;5.72;;
57113;SDS011;42994;51.606;9.988;2023-04-24T16:06:04;6.15;;;4.70;;
57113;SDS011;42994;51.606;9.988;2023-04-24T16:08:31;10.18;;;5.20;;
57113;SDS011;42994;51.606;9.988;2023-04-24T16:10:57;8.98;;;5.13;;
57113;SDS011;42994;51.606;9.988;2023-04-24T16:13:25;9.65;;;5.32;;
57113;SDS011;42994;51.606;9.988;2023-04-24T16:15:53;9.60;;;6.20;;
57113;SDS011;42994;51.606;9.988;2023-04-24T16:18:19;5.82;;;4.30;;
57113;SDS011;42994;51.606;9.988;2023-04-24T16:20:47;8.02;;;4.18;;
57113;SDS011;42994;51.606;9.988;2023-04-24T16:23:13;5.78;;;4.20;;
57113;SDS011;42994;51.606;9.988;2023-04-24T16:25:40;6.60;;;4.25;;
57113;SDS011;42994;51.606;9.988;2023-04-24T16:28:07;9.82;;;3.78;;
57113;SDS011;42994;51.606;9.988;2023-04-24T16:30:34;6.20;;;3.67;;
57113;SDS011;42994;51.606;9.988;2023-04-24T16:33:03;6.47;;;3.60;;
57113;SDS011;42994;51.606;9.988;2023-04-24T16:35:33;8.15;;;4.45;;
57113;SDS011;42994;51.606;9.988;2023-04-24T16:37:59;5.57;;;3.30;;
57113;SDS011;42994;51.606;9.988;2023-04-24T16:40:27;9.57;;;3.90;;
57113;SDS011;42994;51.606;9.988;2023-04-24T16:42:54;7.55;;;3.97;;
57113;SDS011;42994;51.606;9.988;2023-04-24T16:45:20;3.15;;;2.85;;
57113;SDS011;42994;51.606;9.988;2023-04-24T16:47:48;5.63;;;3.25;;
57113;SDS011;42994;51.606;9.988;2023-04-24T16:50:15;7.78;;;4.00;;
57113;SDS011;42994;51.606;9.988;2023-04-24T16:52:41;7.80;;;2.72;;
57113;SDS011;42994;51.606;9.988;2023-04-24T16:55:08;5.07;;;3.28;;
57113;SDS011;42994;51.606;9.988;2023-04-24T16:57:35;4.78;;;3.20;;
57113;SDS011;42994;51.606;9.988;2023-04-24T17:00:02;9.90;;;3.33;;
57113;SDS011;42994;51.606;9.988;2023-04-24T17:02:30;4.00;;;2.90;;
57113;SDS011;42994;51.606;9.988;2023-04-24T17:04:58;7.57;;;3.13;;
57113;SDS011;42994;51.606;9.988;2023-04-24T17:07:25;5.40;;;3.33;;
57113;SDS011;42994;51.606;9.988;2023-04-24T17:09:52;4.55;;;3.03;;
57113;SDS011;42994;51.606;9.988;2023-04-24T17:12:18;4.65;;;3.17;;
57113;SDS011;42994;51.606;9.988;2023-04-24T17:14:45;4.97;;;2.72;;
57113;SDS011;42994;51.606;9.988;2023-04-24T17:17:11;5.13;;;3.08;;
57113;SDS011;42994;51.606;9.988;2023-04-24T17:19:39;5.60;;;3.00;;
57113;SDS011;42994;51.606;9.988;2023-04-24T17:22:07;3.72;;;2.70;;
57113;SDS011;42994;51.606;9.988;2023-04-24T17:24:33;6.47;;;3.10;;
57113;SDS011;42994;51.606;9.988;2023-04-24T17:27:00;5.70;;;2.80;;
57113;SDS011;42994;51.606;9.988;2023-04-24T17:29:27;4.90;;;3.47;;
57113;SDS011;42994;51.606;9.988;2023-04-24T17:31:53;5.97;;;3.00;;
57113;SDS011;42994;51.606;9.988;2023-04-24T17:34:20;8.35;;;3.30;;
57113;SDS011;42994;51.606;9.988;2023-04-24T17:36:46;10.95;;;3.20;;
57113;SDS011;42994;51.606;9.988;2023-04-24T17:39:14;4.50;;;3.28;;
57113;SDS011;42994;51.606;9.988;2023-04-24T17:41:41;5.15;;;3.20;;
57113;SDS011;42994;51.606;9.988;2023-04-24T17:44:08;6.25;;;3.45;;
57113;SDS011;42994;51.606;9.988;2023-04-24T17:46:35;4.63;;;3.30;;
57113;SDS011;42994;51.606;9.988;2023-04-24T17:49:01;13.60;;;4.65;;
57113;SDS011;42994;51.606;9.988;2023-04-24T17:51:28;4.68;;;3.78;;
57113;SDS011;42994;51.606;9.988;2023-04-24T17:53:55;3.97;;;3.60;;
57113;SDS011;42994;51.606;9.988;2023-04-24T17:56:23;7.00;;;4.68;;
57113;SDS011;42994;51.606;9.988;2023-04-24T17:58:50;9.45;;;3.92;;